Detroit, Michigan
Current Conditions -  °F | °C
As of 6:00 AM on Friday 24 Oct 2014 (Local Time) from CYQG Reporting Station
Few Clouds Few Clouds  
Wind Chill: 34°   Ceiling: Unl
Heat Index: 37°   Visibility: 15mi
Dew Point: 36°   Wind: 5mph
Humidity: 93%   Direction: 260°W
Pressure: 30.09"   Gusts: NA
Location:  42.33°N, 83.05°W
Report Text: CYQG 241000Z 26004KT 15SM FEW250 03/02 A3009 RMK CI1 SLP193
Loading
Personal Weather Stations






























Interactive Weather Map
Tropical Storm Tracking
New forecast layout! Learn more

10-Day Weather Forecast

Advertisements
Track Severe Weather on mobile